PST,Max TemperatureF,Mean TemperatureF,Min TemperatureF,Max Dew PointF,MeanDew PointF,Min DewpointF,Max Humidity, Mean Humidity, Min Humidity, Max Sea Level PressureIn, Mean Sea Level PressureIn, Min Sea Level PressureIn, Max VisibilityMiles, Mean VisibilityMiles, Min VisibilityMiles, Max Wind SpeedMPH, Mean Wind SpeedMPH, Max Gust SpeedMPH,PrecipitationIn, CloudCover, Events, WindDirDegrees
2012-12-1,54,46,37,39,36,33,92,71,50,29.70,29.59,29.42,10,9,3,24,10,31,0.01,4,Rain,182
2012-12-2,56,48,39,43,38,30,96,69,41,29.80,29.46,29.23,10,8,2,25,8,31,0.46,5,Rain,225
2012-12-3,54,47,40,40,37,33,79,67,54,30.01,29.93,29.80,10,10,10,24,7,67,0.00,5,,192
2012-12-4,49,44,39,42,40,36,93,85,76,29.80,29.75,29.72,10,9,4,13,4,21,0.27,7,Rain,257
2012-12-5,53,42,31,39,28,23,92,64,35,30.21,30.08,29.78,10,10,5,25,6,33,0.00,2,,276
2012-12-6,49,38,27,34,28,24,92,73,54,30.19,30.11,30.02,10,10,9,10,2,13,0.00,2,,298
2012-12-7,50,39,28,36,28,22,92,66,40,30.10,30.01,29.89,10,9,7,32,7,40,0.00,0,,298
2012-12-8,45,37,29,30,27,24,78,66,53,30.35,30.21,30.09,10,10,10,14,2,18,0.00,3,,282
2012-12-9,41,34,27,30,28,24,92,79,65,30.43,30.34,30.25,10,9,2,8,2,9,T,5,Snow,241
2012-12-10,46,35,23,33,27,19,92,79,65,30.35,30.25,30.07,10,7,4,10,2,12,0.00,0,,311
2012-12-11,42,35,28,33,29,25,92,83,73,30.03,29.73,29.58,10,7,4,9,2,9,T,2,,279
2012-12-12,40,33,26,33,28,24,92,86,79,30.04,29.82,29.62,10,8,5,9,2,21,T,4,,277
2012-12-13,36,28,19,30,26,16,92,84,75,30.09,29.97,29.87,10,5,0,12,4,37,0.00,5,Fog,241
2012-12-14,36,34,32,31,30,28,92,84,75,29.99,29.87,29.79,10,5,1,6,1,37,0.01,8,Snow,73
2012-12-15,33,28,23,30,28,19,92,87,82,29.99,29.79,29.64,10,5,1,10,2,81,0.05,7,Snow,219
2012-12-16,34,27,20,32,26,17,96,87,78,29.81,29.53,29.15,10,4,0,37,2,47,0.58,7,Fog-Rain-Snow,269
2012-12-17,46,33,19,34,27,14,96,71,45,29.91,29.45,29.09,10,8,2,26,9,43,0.04,3,Rain,250
2012-12-18,34,23,12,21,14,9,88,72,56,30.06,29.97,29.90,10,10,8,38,5,77,0.00,0,,277
2012-12-19,34,25,15,30,23,11,89,82,75,30.05,29.92,29.78,10,8,1,14,3,37,0.01,7,Snow,268
2012-12-20,44,38,32,33,30,28,89,73,57,29.87,29.75,29.66,10,10,7,23,5,83,0.00,6,,255
2012-12-21,36,31,25,34,31,22,96,86,75,29.90,29.82,29.74,10,4,1,8,3,13,0.18,8,Rain-Snow,272
2012-12-22,41,34,27,36,32,24,92,83,73,29.82,29.68,29.59,10,6,1,12,3,13,0.02,6,Rain,292
2012-12-23,35,29,22,34,30,20,92,87,81,29.87,29.72,29.62,10,6,1,9,3,10,0.04,7,Rain-Snow,276
2012-12-24,38,30,22,32,27,19,96,86,76,30.19,30.01,29.79,10,6,0,12,3,21,0.00,1,Fog,276
2012-12-25,34,29,23,31,28,20,92,87,81,30.16,29.92,29.81,10,4,0,10,2,9,0.26,7,Fog-Rain-Snow,271
2012-12-26,37,34,31,32,30,28,96,89,82,29.99,29.88,29.80,10,4,1,10,3,21,0.02,8,Snow,268
2012-12-27,36,32,28,31,28,26,92,84,75,30.23,30.10,29.98,10,7,2,8,3,9,0.00,8,,242
2012-12-28,30,27,24,28,25,21,92,88,84,30.28,30.24,30.19,10,4,0,8,4,15,0.00,8,Fog,257
2012-12-29,32,29,25,27,26,23,92,82,72,30.29,30.20,30.13,10,6,1,8,2,8,0.09,8,Snow,271
2012-12-30,32,22,12,24,20,9,92,81,69,30.40,30.35,30.30,10,8,2,8,2,8,T,5,,260
2012-12-31,30,28,26,23,21,19,81,75,69,30.55,30.42,30.33,10,10,9,8,4,17,0.00,8,,283